createdAt,value
2018-03-08T00:02:27.150Z,35.03
2018-03-08T00:04:54.682Z,35.47
2018-03-08T00:07:22.983Z,32.13
2018-03-08T00:09:50.509Z,36.42
2018-03-08T00:12:18.758Z,35.90
2018-03-08T00:14:46.888Z,35.22
2018-03-08T00:17:15.174Z,34.75
2018-03-08T00:19:42.688Z,33.05
2018-03-08T00:22:10.184Z,33.40
2018-03-08T00:24:38.556Z,33.63
2018-03-08T00:27:06.865Z,31.75
2018-03-08T00:29:34.395Z,34.63
2018-03-08T00:32:02.187Z,35.25
2018-03-08T00:34:30.509Z,35.28
2018-03-08T00:36:58.033Z,35.10
2018-03-08T00:39:25.552Z,35.47
2018-03-08T00:41:53.081Z,31.17
2018-03-08T00:44:20.622Z,34.00
2018-03-08T00:46:48.993Z,32.40
2018-03-08T00:49:16.611Z,31.52
2018-03-08T00:51:44.106Z,32.95
2018-03-08T00:54:12.008Z,35.60
2018-03-08T00:56:39.565Z,33.85
2018-03-08T00:59:07.835Z,34.38
2018-03-08T01:01:36.120Z,36.05
2018-03-08T01:04:04.395Z,35.60
2018-03-08T01:06:32.689Z,33.22
2018-03-08T01:09:00.967Z,36.05
2018-03-08T01:11:29.249Z,34.15
2018-03-08T01:13:57.525Z,35.97
2018-03-08T01:16:25.825Z,38.13
2018-03-08T01:18:53.336Z,37.58
2018-03-08T01:21:20.945Z,37.22
2018-03-08T01:23:49.208Z,40.58
2018-03-08T01:26:17.486Z,39.63
2018-03-08T01:28:45.512Z,40.65
2018-03-08T01:31:13.039Z,38.08
2018-03-08T01:33:41.316Z,37.78
2018-03-08T01:36:20.852Z,37.63
2018-03-08T01:38:49.228Z,37.40
2018-03-08T01:41:17.512Z,37.50
2018-03-08T01:43:45.792Z,38.08
2018-03-08T01:46:14.107Z,35.97
2018-03-08T01:48:41.660Z,39.30
2018-03-08T01:51:09.172Z,36.42
2018-03-08T01:53:36.686Z,39.33
2018-03-08T01:56:05.334Z,39.95
2018-03-08T01:58:34.348Z,40.22
2018-03-08T02:01:02.658Z,40.30
2018-03-08T02:03:30.173Z,40.08
2018-03-08T02:05:57.709Z,38.83
2018-03-08T02:08:25.268Z,39.85
2018-03-08T02:10:52.815Z,43.42
2018-03-08T02:13:20.344Z,40.38
2018-03-08T02:15:48.648Z,41.13
2018-03-08T02:18:16.464Z,43.17
2018-03-08T02:20:51.677Z,45.35
2018-03-08T02:23:19.607Z,43.42
2018-03-08T02:25:48.088Z,42.17
2018-03-08T02:28:15.989Z,41.45
2018-03-08T02:30:43.987Z,42.72
2018-03-08T02:33:11.649Z,41.05
2018-03-08T02:35:39.180Z,42.37
2018-03-08T02:38:07.632Z,42.80
2018-03-08T02:40:38.228Z,39.80
2018-03-08T02:43:05.850Z,47.28
2018-03-08T02:45:33.368Z,41.90
2018-03-08T02:48:01.084Z,43.00
2018-03-08T02:50:31.353Z,42.50
2018-03-08T02:52:58.925Z,42.30
2018-03-08T02:55:26.468Z,44.60
2018-03-08T02:57:54.756Z,42.33
2018-03-08T03:00:25.117Z,43.40
2018-03-08T03:02:52.720Z,42.27
2018-03-08T03:05:21.007Z,44.13
2018-03-08T03:07:49.321Z,45.00
2018-03-08T03:10:18.389Z,43.47
2018-03-08T03:12:47.054Z,45.23
2018-03-08T03:15:15.888Z,38.97
2018-03-08T03:17:48.100Z,40.03
2018-03-08T03:20:15.675Z,38.63
2018-03-08T03:22:47.233Z,41.70
2018-03-08T03:25:14.742Z,41.83
2018-03-08T03:27:42.259Z,45.72
2018-03-08T03:30:09.757Z,43.28
2018-03-08T03:32:38.064Z,38.83
2018-03-08T03:35:05.599Z,43.10
2018-03-08T03:37:33.888Z,43.90
2018-03-08T03:40:02.157Z,41.88
2018-03-08T03:42:30.447Z,42.15
2018-03-08T03:44:58.760Z,41.45
2018-03-08T03:47:26.339Z,42.97
2018-03-08T03:49:53.859Z,42.22
2018-03-08T03:52:22.335Z,41.15
2018-03-08T03:54:50.621Z,43.60
2018-03-08T03:57:18.905Z,40.63
2018-03-08T03:59:47.179Z,44.80
2018-03-08T04:02:15.467Z,43.03
2018-03-08T04:04:43.720Z,44.93
2018-03-08T04:07:11.254Z,42.03
2018-03-08T04:09:38.751Z,41.40
2018-03-08T04:12:06.380Z,40.63
2018-03-08T04:14:33.897Z,41.60
2018-03-08T04:17:02.201Z,39.85
2018-03-08T04:19:29.699Z,39.03
2018-03-08T04:21:57.229Z,41.00
2018-03-08T04:24:24.723Z,40.33
2018-03-08T04:26:52.238Z,43.47
2018-03-08T04:29:20.519Z,41.93
2018-03-08T04:31:48.015Z,40.33
2018-03-08T04:34:15.574Z,40.77
2018-03-08T04:36:43.105Z,40.10
2018-03-08T04:39:11.384Z,40.00
2018-03-08T04:41:39.664Z,40.50
2018-03-08T04:44:07.933Z,40.67
2018-03-08T04:46:35.437Z,42.33
2018-03-08T04:49:02.959Z,38.27
2018-03-08T04:51:31.447Z,42.00
2018-03-08T04:53:59.810Z,41.23
2018-03-08T04:56:27.311Z,41.97
2018-03-08T04:58:55.585Z,40.67
2018-03-08T05:01:23.843Z,40.27
2018-03-08T05:03:51.363Z,40.33
2018-03-08T05:06:18.954Z,37.57
2018-03-08T05:08:46.463Z,35.93
2018-03-08T05:11:14.787Z,36.50
2018-03-08T05:13:42.961Z,36.90
2018-03-08T05:16:10.619Z,37.08
2018-03-08T05:18:38.327Z,37.78
2018-03-08T05:21:05.879Z,36.30
2018-03-08T05:23:33.393Z,36.50
2018-03-08T05:26:00.918Z,36.53
2018-03-08T05:28:28.487Z,39.00
2018-03-08T05:30:56.007Z,36.30
2018-03-08T05:33:23.528Z,35.90
2018-03-08T05:35:51.947Z,37.92
2018-03-08T05:38:19.626Z,36.45
2018-03-08T05:40:47.551Z,37.17
2018-03-08T05:43:16.406Z,34.95
2018-03-08T05:45:43.987Z,36.53
2018-03-08T05:48:11.497Z,36.83
2018-03-08T05:50:39.009Z,35.10
2018-03-08T05:53:06.551Z,35.60
2018-03-08T05:55:34.059Z,35.47
2018-03-08T05:58:02.351Z,33.45
2018-03-08T06:00:30.666Z,36.20
2018-03-08T06:02:58.197Z,36.95
2018-03-08T06:05:26.487Z,32.97
2018-03-08T06:07:54.765Z,32.07
2018-03-08T06:10:22.277Z,34.90
2018-03-08T06:12:49.788Z,29.73
2018-03-08T06:15:18.050Z,34.00
2018-03-08T06:17:45.578Z,34.40
2018-03-08T06:20:13.099Z,32.53
2018-03-08T06:22:41.380Z,33.07
2018-03-08T06:25:08.895Z,30.20
2018-03-08T06:27:36.429Z,32.17
2018-03-08T06:30:03.949Z,26.73
2018-03-08T06:32:32.240Z,26.10
2018-03-08T06:35:00.541Z,24.07
2018-03-08T06:37:28.061Z,22.87
2018-03-08T06:39:55.632Z,21.60
2018-03-08T06:42:23.095Z,22.57
2018-03-08T06:44:50.603Z,20.97
2018-03-08T06:47:18.126Z,21.37
2018-03-08T06:49:45.691Z,18.83
2018-03-08T06:52:13.276Z,20.40
2018-03-08T06:54:40.822Z,21.75
2018-03-08T06:57:08.313Z,20.30
2018-03-08T06:59:35.838Z,22.33
2018-03-08T07:02:03.336Z,22.07
2018-03-08T07:04:31.615Z,20.70
2018-03-08T07:06:59.915Z,20.30
2018-03-08T07:09:27.475Z,20.77
2018-03-08T07:11:54.969Z,21.23
2018-03-08T07:14:22.487Z,20.30
2018-03-08T07:16:50.763Z,20.23
2018-03-08T07:19:19.066Z,19.87
2018-03-08T07:21:46.565Z,20.70
2018-03-08T07:24:14.092Z,19.80
2018-03-08T07:26:41.901Z,17.07
2018-03-08T07:29:09.455Z,16.97
2018-03-08T07:31:37.111Z,18.70
2018-03-08T07:34:04.654Z,17.70
2018-03-08T07:36:32.203Z,17.97
2018-03-08T07:39:01.236Z,16.83
2018-03-08T07:41:28.745Z,14.53
2018-03-08T07:43:56.263Z,17.23
2018-03-08T07:46:23.787Z,15.83
2018-03-08T07:48:52.076Z,16.87
2018-03-08T07:51:19.577Z,15.93
2018-03-08T07:53:47.113Z,15.70
2018-03-08T07:56:14.759Z,15.47
2018-03-08T07:58:43.033Z,15.07
2018-03-08T08:01:10.599Z,15.33
2018-03-08T08:03:38.869Z,17.00
2018-03-08T08:06:18.329Z,16.17
2018-03-08T08:08:57.723Z,16.43
2018-03-08T08:11:25.221Z,17.33
2018-03-08T08:13:53.497Z,16.37
2018-03-08T08:16:21.836Z,14.67
2018-03-08T08:18:49.377Z,14.07
2018-03-08T08:21:16.898Z,13.23
2018-03-08T08:23:45.163Z,13.17
2018-03-08T08:26:12.687Z,13.27
2018-03-08T08:28:40.219Z,13.90
2018-03-08T08:31:08.503Z,12.70
2018-03-08T08:33:36.776Z,14.07
2018-03-08T08:36:05.043Z,12.53
2018-03-08T08:38:32.692Z,11.83
2018-03-08T08:41:00.216Z,12.13
2018-03-08T08:43:27.695Z,10.87
2018-03-08T08:45:55.443Z,11.80
2018-03-08T08:48:22.976Z,11.73
2018-03-08T08:50:51.562Z,11.90
2018-03-08T08:53:19.831Z,10.17
2018-03-08T08:55:47.442Z,12.90
2018-03-08T08:58:14.947Z,10.47
2018-03-08T09:00:42.517Z,11.63
2018-03-08T09:03:10.033Z,9.88
2018-03-08T09:05:37.551Z,11.23
2018-03-08T09:08:05.085Z,11.75
2018-03-08T09:10:32.611Z,12.25
2018-03-08T09:13:01.011Z,10.15
2018-03-08T09:15:28.536Z,10.17
2018-03-08T09:17:56.838Z,11.05
2018-03-08T09:20:24.347Z,11.20
2018-03-08T09:22:51.877Z,11.63
2018-03-08T09:25:19.401Z,11.45
2018-03-08T09:27:47.705Z,9.10
2018-03-08T09:30:16.189Z,9.33
2018-03-08T09:32:44.439Z,9.40
2018-03-08T09:35:11.959Z,10.07
2018-03-08T09:37:39.503Z,10.37
2018-03-08T09:40:07.024Z,9.63
2018-03-08T09:42:35.285Z,9.02
2018-03-08T09:45:02.806Z,8.70
2018-03-08T09:47:31.088Z,8.45
2018-03-08T09:49:58.657Z,8.93
2018-03-08T09:52:26.169Z,8.97
2018-03-08T09:54:53.699Z,10.07
2018-03-08T09:57:21.229Z,9.93
2018-03-08T09:59:49.578Z,9.25
2018-03-08T10:02:17.104Z,7.90
2018-03-08T10:04:45.145Z,8.25
2018-03-08T10:07:13.505Z,7.75
2018-03-08T10:09:41.035Z,7.90
2018-03-08T10:12:08.631Z,8.82
2018-03-08T10:14:36.189Z,8.20
2018-03-08T10:17:03.897Z,10.18
2018-03-08T10:19:32.164Z,9.10
2018-03-08T10:22:00.469Z,9.65
2018-03-08T10:24:28.033Z,10.18
2018-03-08T10:26:57.097Z,9.85
2018-03-08T10:29:24.695Z,11.18
2018-03-08T10:31:52.987Z,10.88
2018-03-08T10:34:20.496Z,13.15
2018-03-08T10:36:48.006Z,12.80
2018-03-08T10:44:11.345Z,13.13
2018-03-08T10:46:38.932Z,14.27
2018-03-08T10:49:06.496Z,11.98
2018-03-08T10:51:34.442Z,12.53
2018-03-08T10:54:01.936Z,13.32
2018-03-08T10:56:29.519Z,11.27
2018-03-08T10:58:57.087Z,13.45
2018-03-08T11:01:25.491Z,12.67
2018-03-08T11:03:54.717Z,12.25
2018-03-08T11:06:27.831Z,12.97
2018-03-08T11:08:55.346Z,14.40
2018-03-08T11:11:22.892Z,13.02
2018-03-08T11:13:51.203Z,12.50
2018-03-08T11:16:18.726Z,13.83
2018-03-08T11:18:46.275Z,14.50
2018-03-08T11:21:13.793Z,13.67
2018-03-08T11:23:41.323Z,13.25
2018-03-08T11:26:08.922Z,14.50
2018-03-08T11:28:36.425Z,14.93
2018-03-08T11:31:03.985Z,15.73
2018-03-08T11:33:31.521Z,12.60
2018-03-08T11:35:59.040Z,14.57
2018-03-08T11:38:27.355Z,16.30
2018-03-08T11:40:54.871Z,13.80
2018-03-08T11:43:22.421Z,16.10
2018-03-08T11:45:49.941Z,14.17
2018-03-08T11:48:17.576Z,14.70
2018-03-08T11:50:45.078Z,15.07
2018-03-08T11:53:12.618Z,13.27
2018-03-08T11:55:40.133Z,14.67
2018-03-08T11:58:07.815Z,15.57
2018-03-08T12:00:35.437Z,14.40
2018-03-08T12:03:02.975Z,14.67
2018-03-08T12:05:31.508Z,14.43
2018-03-08T12:07:59.027Z,14.43
2018-03-08T12:10:26.834Z,13.40
2018-03-08T12:12:54.428Z,15.30
2018-03-08T12:15:22.148Z,13.37
2018-03-08T12:17:50.494Z,13.50
2018-03-08T12:20:18.248Z,14.50
2018-03-08T12:22:45.763Z,13.90
2018-03-08T12:25:13.271Z,13.73
2018-03-08T12:27:40.935Z,13.63
2018-03-08T12:30:09.231Z,12.63
2018-03-08T12:32:36.899Z,12.60
2018-03-08T12:35:04.404Z,14.17
2018-03-08T12:37:32.689Z,14.07
2018-03-08T12:40:00.219Z,13.60
2018-03-08T12:42:27.731Z,13.33
2018-03-08T12:44:55.221Z,12.97
2018-03-08T12:47:22.745Z,13.57
2018-03-08T12:49:50.251Z,13.30
2018-03-08T12:52:18.118Z,20.33
2018-03-08T12:54:45.935Z,13.67
2018-03-08T12:57:14.252Z,13.80
2018-03-08T12:59:41.767Z,13.80
2018-03-08T13:02:10.141Z,12.97
2018-03-08T13:04:37.663Z,14.20
2018-03-08T13:07:05.384Z,12.83
2018-03-08T13:09:33.679Z,12.30
2018-03-08T13:12:01.954Z,12.93
2018-03-08T13:14:29.493Z,13.17
2018-03-08T13:16:57.015Z,12.90
2018-03-08T13:19:24.548Z,11.60
2018-03-08T13:21:52.836Z,12.40
2018-03-08T13:24:21.154Z,12.23
2018-03-08T13:26:48.665Z,12.37
2018-03-08T13:29:16.978Z,11.57
2018-03-08T13:31:44.578Z,11.83
2018-03-08T13:34:12.086Z,11.27
2018-03-08T13:36:41.178Z,11.13
2018-03-08T13:39:08.756Z,11.90
2018-03-08T13:41:37.068Z,11.07
2018-03-08T13:44:04.605Z,12.00
2018-03-08T13:46:32.147Z,11.00
2018-03-08T13:49:06.362Z,10.43
2018-03-08T13:51:33.878Z,10.73
2018-03-08T13:54:01.399Z,10.43
2018-03-08T13:56:29.677Z,9.40
2018-03-08T13:58:57.993Z,9.30
2018-03-08T14:01:25.558Z,9.77
2018-03-08T14:03:53.279Z,9.93
2018-03-08T14:06:21.654Z,9.30
2018-03-08T14:08:49.191Z,9.07
2018-03-08T14:11:16.780Z,8.87
2018-03-08T14:13:44.346Z,8.40
2018-03-08T14:16:11.870Z,9.60
2018-03-08T14:18:39.399Z,8.70
2018-03-08T14:21:07.675Z,8.37
2018-03-08T14:23:35.965Z,9.60
2018-03-08T14:26:04.235Z,8.10
2018-03-08T14:28:32.547Z,8.20
2018-03-08T14:31:00.178Z,8.47
2018-03-08T14:33:28.493Z,8.00
2018-03-08T14:35:56.003Z,9.50
2018-03-08T14:38:23.533Z,9.77
2018-03-08T14:40:51.047Z,10.23
2018-03-08T14:43:19.354Z,9.63
2018-03-08T14:45:46.927Z,8.50
2018-03-08T14:48:14.607Z,8.57
2018-03-08T14:50:42.133Z,8.07
2018-03-08T14:53:10.458Z,8.00
2018-03-08T14:55:37.981Z,6.87
2018-03-08T14:58:06.921Z,7.73
2018-03-08T15:00:35.253Z,7.73
2018-03-08T15:03:03.589Z,7.83
2018-03-08T15:05:31.132Z,6.37
2018-03-08T15:07:58.639Z,5.90
2018-03-08T15:10:26.777Z,5.70
2018-03-08T15:12:54.294Z,5.80
2018-03-08T15:15:22.567Z,5.30
2018-03-08T15:17:50.055Z,5.03
2018-03-08T15:20:18.353Z,5.23
2018-03-08T15:22:45.861Z,4.53
2018-03-08T15:25:13.389Z,4.10
2018-03-08T15:27:40.925Z,3.50
2018-03-08T15:30:09.314Z,4.00
2018-03-08T15:32:37.585Z,3.20
2018-03-08T15:35:05.877Z,4.00
2018-03-08T15:37:33.429Z,3.20
2018-03-08T15:40:02.522Z,4.07
2018-03-08T15:42:30.793Z,3.77
2018-03-08T15:44:58.392Z,6.40
2018-03-08T15:47:26.017Z,4.50
2018-03-08T15:49:53.672Z,3.23
2018-03-08T15:52:21.195Z,4.03
2018-03-08T15:54:48.752Z,3.13
2018-03-08T15:57:16.321Z,3.40
2018-03-08T15:59:43.849Z,3.60
2018-03-08T16:02:11.495Z,4.17
2018-03-08T16:04:38.992Z,4.87
2018-03-08T16:10:40.610Z,3.03
2018-03-08T16:13:08.149Z,3.87
2018-03-08T16:15:35.658Z,4.10
2018-03-08T16:18:03.955Z,4.97
2018-03-08T16:20:31.711Z,4.03
2018-03-08T16:22:59.973Z,3.80
2018-03-08T16:25:27.523Z,4.63
2018-03-08T16:27:55.201Z,5.80
2018-03-08T16:30:22.727Z,6.50
2018-03-08T16:32:50.897Z,7.27
2018-03-08T16:35:18.536Z,9.70
2018-03-08T16:37:46.831Z,6.83
2018-03-08T16:40:14.390Z,5.40
2018-03-08T16:42:41.969Z,7.10
2018-03-08T16:45:09.505Z,5.27
2018-03-08T16:47:37.037Z,5.97
2018-03-08T16:50:04.752Z,5.13
2018-03-08T16:52:32.238Z,5.77
2018-03-08T16:54:59.776Z,6.70
2018-03-08T16:57:28.087Z,5.57
2018-03-08T16:59:55.640Z,6.00
2018-03-08T17:02:23.162Z,7.17
2018-03-08T17:04:50.663Z,7.77
2018-03-08T17:07:18.346Z,6.23
2018-03-08T17:09:45.853Z,6.00
2018-03-08T17:12:13.367Z,5.80
2018-03-08T17:14:40.904Z,6.53
2018-03-08T17:17:08.439Z,6.83
2018-03-08T17:19:35.925Z,6.80
2018-03-08T17:22:03.485Z,5.87
2018-03-08T17:24:31.750Z,6.90
2018-03-08T17:26:59.337Z,7.73
2018-03-08T17:29:27.631Z,7.03
2018-03-08T17:31:55.198Z,6.97
2018-03-08T17:34:22.753Z,8.60
2018-03-08T17:36:50.249Z,8.13
2018-03-08T17:39:17.776Z,9.30
2018-03-08T17:41:46.066Z,8.63
2018-03-08T17:44:13.587Z,8.63
2018-03-08T17:46:41.925Z,8.20
2018-03-08T17:49:09.444Z,7.60
2018-03-08T17:51:37.088Z,7.77
2018-03-08T17:54:04.594Z,7.77
2018-03-08T17:56:32.873Z,7.53
2018-03-08T17:59:01.158Z,8.57
2018-03-08T18:01:29.428Z,8.10
2018-03-08T18:03:57.709Z,9.53
2018-03-08T18:06:25.978Z,7.37
2018-03-08T18:08:53.488Z,8.07
2018-03-08T18:11:21.009Z,8.63
2018-03-08T18:13:48.725Z,9.97
2018-03-08T18:16:16.249Z,9.30
2018-03-08T18:18:44.528Z,8.20
2018-03-08T18:21:12.045Z,9.07
2018-03-08T18:23:39.633Z,8.60
2018-03-08T18:26:07.184Z,9.07
2018-03-08T18:28:34.714Z,9.13
2018-03-08T18:31:02.260Z,7.43
2018-03-08T18:33:29.787Z,8.77
2018-03-08T18:35:57.551Z,9.37
2018-03-08T18:38:25.114Z,7.97
2018-03-08T18:40:52.639Z,8.53
2018-03-08T18:43:20.655Z,7.87
2018-03-08T18:45:48.164Z,8.17
2018-03-08T18:48:15.796Z,6.70
2018-03-08T18:50:43.310Z,8.27
2018-03-08T18:53:10.834Z,6.30
2018-03-08T18:55:39.082Z,6.27
2018-03-08T18:58:19.475Z,7.40
2018-03-08T19:00:47.763Z,8.27
2018-03-08T19:03:16.882Z,6.73
2018-03-08T19:05:44.482Z,7.30
2018-03-08T19:08:11.991Z,7.13
2018-03-08T19:10:40.325Z,6.17
2018-03-08T19:13:07.855Z,7.60
2018-03-08T19:15:35.482Z,6.77
2018-03-08T19:18:03.005Z,6.27
2018-03-08T19:20:30.534Z,6.50
2018-03-08T19:22:58.876Z,7.30
2018-03-08T19:25:26.415Z,6.13
2018-03-08T19:27:53.995Z,5.97
2018-03-08T19:30:21.612Z,6.23
2018-03-08T19:32:49.872Z,7.77
2018-03-08T19:35:17.412Z,6.67
2018-03-08T19:37:44.999Z,6.97
2018-03-08T19:40:13.373Z,5.03
2018-03-08T19:42:40.895Z,6.60
2018-03-08T19:45:08.441Z,6.43
2018-03-08T19:47:36.066Z,6.97
2018-03-08T19:50:03.632Z,6.43
2018-03-08T19:52:31.950Z,6.53
2018-03-08T19:55:00.281Z,6.10
2018-03-08T19:57:27.873Z,7.17
2018-03-08T19:59:55.406Z,7.30
2018-03-08T20:02:22.944Z,5.20
2018-03-08T20:04:50.906Z,7.10
2018-03-08T20:07:18.461Z,5.70
2018-03-08T20:09:46.776Z,5.47
2018-03-08T20:12:14.875Z,5.57
2018-03-08T20:14:42.454Z,5.80
2018-03-08T20:17:10.210Z,6.30
2018-03-08T20:19:37.741Z,7.43
2018-03-08T20:22:05.423Z,7.90
2018-03-08T20:24:32.944Z,6.83
2018-03-08T20:27:01.371Z,6.67
2018-03-08T20:29:29.723Z,6.97
2018-03-08T20:31:57.350Z,6.00
2018-03-08T20:34:24.850Z,7.80
2018-03-08T20:36:52.372Z,7.30
2018-03-08T20:39:19.884Z,7.77
2018-03-08T20:41:47.405Z,7.90
2018-03-08T20:44:14.936Z,5.77
2018-03-08T20:46:42.501Z,7.17
2018-03-08T20:49:10.054Z,7.20
2018-03-08T20:51:37.617Z,7.83
2018-03-08T20:54:05.132Z,8.03
2018-03-08T20:56:32.657Z,7.97
2018-03-08T20:59:00.182Z,6.80
2018-03-08T21:01:27.679Z,7.67
2018-03-08T21:03:55.198Z,5.50
2018-03-08T21:06:23.492Z,6.40
2018-03-08T21:08:51.017Z,7.23
2018-03-08T21:11:19.323Z,6.60
2018-03-08T21:13:47.728Z,6.07
2018-03-08T21:16:15.425Z,6.40
2018-03-08T21:18:42.942Z,7.23
2018-03-08T21:21:11.227Z,6.07
2018-03-08T21:23:39.501Z,5.30
2018-03-08T21:26:07.790Z,6.10
2018-03-08T21:28:36.057Z,5.60
2018-03-08T21:31:04.361Z,5.73
2018-03-08T21:33:31.918Z,4.80
2018-03-08T21:36:00.182Z,4.87
2018-03-08T21:38:28.468Z,3.87
2018-03-08T21:40:56.797Z,5.00
2018-03-08T21:43:24.288Z,4.20
2018-03-08T21:45:52.336Z,3.90
2018-03-08T21:48:19.839Z,4.83
2018-03-08T21:50:48.112Z,5.13
2018-03-08T21:53:15.617Z,5.93
2018-03-08T21:55:43.102Z,5.17
2018-03-08T21:58:10.639Z,5.50
2018-03-08T22:00:38.138Z,5.87
2018-03-08T22:03:05.643Z,5.70
2018-03-08T22:05:33.953Z,5.93
2018-03-08T22:08:01.477Z,5.93
2018-03-08T22:10:29.345Z,5.80
2018-03-08T22:12:57.830Z,7.93
2018-03-08T22:15:25.341Z,10.30
2018-03-08T22:17:52.865Z,9.27
2018-03-08T22:20:21.128Z,8.13
2018-03-08T22:22:48.682Z,7.70
2018-03-08T22:25:16.229Z,5.43
2018-03-08T22:27:43.854Z,5.50
2018-03-08T22:30:12.131Z,4.70
2018-03-08T22:32:40.449Z,4.50
2018-03-08T22:35:07.954Z,5.40
2018-03-08T22:37:35.806Z,6.63
2018-03-08T22:40:03.457Z,8.07
2018-03-08T22:42:30.945Z,6.77
2018-03-08T22:44:58.465Z,7.97
2018-03-08T22:47:25.975Z,7.43
2018-03-08T22:49:53.471Z,7.10
2018-03-08T22:52:21.781Z,5.80
2018-03-08T22:54:49.295Z,5.20
2018-03-08T22:57:17.584Z,5.70
2018-03-08T22:59:45.883Z,6.13
2018-03-08T23:02:14.155Z,3.20
2018-03-08T23:04:42.423Z,2.57
2018-03-08T23:07:10.707Z,2.70
2018-03-08T23:09:39.753Z,2.50
2018-03-08T23:12:08.089Z,2.07
2018-03-08T23:14:36.378Z,2.03
2018-03-08T23:17:04.679Z,2.30
2018-03-08T23:19:34.350Z,2.45
2018-03-08T23:22:02.633Z,1.87
2018-03-08T23:24:30.163Z,1.62
2018-03-08T23:26:57.690Z,1.85
2018-03-08T23:29:25.217Z,2.17
2018-03-08T23:31:52.711Z,2.27
2018-03-08T23:34:20.232Z,2.07
2018-03-08T23:36:47.865Z,1.75
2018-03-08T23:39:15.375Z,1.73
2018-03-08T23:41:43.257Z,2.67
2018-03-08T23:44:11.539Z,2.63
2018-03-08T23:46:39.117Z,2.40
2018-03-08T23:49:07.375Z,2.90
2018-03-08T23:51:34.875Z,2.92
2018-03-08T23:54:02.394Z,2.70
2018-03-08T23:56:29.905Z,3.05
2018-03-08T23:58:57.413Z,3.47
